createdAt,value
2022-08-30T00:01:30.546Z,100577.00
2022-08-30T00:03:58.500Z,100573.00
2022-08-30T00:06:28.587Z,100547.00
2022-08-30T00:08:57.137Z,100552.00
2022-08-30T00:11:27.785Z,100587.00
2022-08-30T00:13:58.071Z,100582.00
2022-08-30T00:16:26.618Z,100586.00
2022-08-30T00:18:53.821Z,100590.00
2022-08-30T00:21:21.715Z,100590.00
2022-08-30T00:23:48.650Z,100592.00
2022-08-30T00:26:16.002Z,100589.00
2022-08-30T00:28:42.884Z,100598.00
2022-08-30T00:31:10.544Z,100594.00
2022-08-30T00:33:42.207Z,100601.00
2022-08-30T00:36:09.113Z,100559.00
2022-08-30T00:38:36.038Z,100595.00
2022-08-30T00:41:03.316Z,100596.00
2022-08-30T00:43:36.578Z,100601.00
2022-08-30T00:46:08.376Z,100593.00
2022-08-30T00:48:42.626Z,100598.00
2022-08-30T00:51:14.028Z,100598.00
2022-08-30T00:53:48.336Z,100581.00
2022-08-30T00:56:17.067Z,100591.00
2022-08-30T00:58:50.557Z,100590.00
2022-08-30T01:01:18.661Z,100587.00
2022-08-30T01:03:46.635Z,100583.00
2022-08-30T01:06:17.092Z,100586.00
2022-08-30T01:08:46.786Z,100583.00
2022-08-30T01:11:21.585Z,100586.00
2022-08-30T01:13:51.927Z,100580.00
2022-08-30T01:16:19.621Z,100557.00
2022-08-30T01:18:50.123Z,100589.00
2022-08-30T01:21:45.004Z,100595.00
2022-08-30T01:24:12.925Z,100602.00
2022-08-30T01:26:40.807Z,100603.00
2022-08-30T01:29:13.494Z,100603.00
2022-08-30T01:31:40.343Z,100606.00
2022-08-30T01:34:08.281Z,100599.00
2022-08-30T01:36:44.588Z,100590.00
2022-08-30T01:39:15.942Z,100601.00
2022-08-30T01:41:43.595Z,100598.00
2022-08-30T01:44:13.288Z,100599.00
2022-08-30T01:46:47.651Z,100604.00
2022-08-30T01:49:18.949Z,100589.00
2022-08-30T01:52:00.666Z,100604.00
2022-08-30T01:54:36.894Z,100603.00
2022-08-30T01:57:08.124Z,100601.00
2022-08-30T01:59:35.227Z,100599.00
2022-08-30T02:02:03.277Z,100609.00
2022-08-30T02:04:30.745Z,100604.00
2022-08-30T02:06:57.753Z,100601.00
2022-08-30T02:09:24.624Z,100604.00
2022-08-30T02:11:51.927Z,100602.00
2022-08-30T02:14:18.785Z,100606.00
2022-08-30T02:16:48.506Z,100613.00
2022-08-30T02:19:15.753Z,100609.00
2022-08-30T02:21:42.575Z,100615.00
2022-08-30T02:24:09.428Z,100614.00
2022-08-30T02:26:36.651Z,100607.00
2022-08-30T02:29:05.915Z,100604.00
2022-08-30T02:31:33.112Z,100603.00
2022-08-30T02:34:00.528Z,100590.00
2022-08-30T02:36:28.170Z,100604.00
2022-08-30T02:38:55.105Z,100603.00
2022-08-30T02:41:23.645Z,100604.00
2022-08-30T02:43:51.553Z,100608.00
2022-08-30T02:46:19.276Z,100598.00
2022-08-30T02:48:46.242Z,100605.00
2022-08-30T02:51:15.086Z,100600.00
2022-08-30T02:53:44.297Z,100604.00
2022-08-30T02:56:13.935Z,100603.00
2022-08-30T02:58:42.564Z,100611.00
2022-08-30T03:01:13.757Z,100596.00
2022-08-30T03:03:43.577Z,100615.00
2022-08-30T03:06:10.541Z,100599.00
2022-08-30T03:08:37.985Z,100602.00
2022-08-30T03:11:05.780Z,100602.00
2022-08-30T03:13:32.721Z,100600.00
2022-08-30T03:15:59.793Z,100605.00
2022-08-30T03:18:26.871Z,100581.00
2022-08-30T03:20:54.213Z,100614.00
2022-08-30T03:23:23.708Z,100603.00
2022-08-30T03:25:51.299Z,100619.00
2022-08-30T03:28:18.235Z,100619.00
2022-08-30T03:30:45.127Z,100612.00
2022-08-30T03:33:12.005Z,100614.00
2022-08-30T03:35:38.929Z,100613.00
2022-08-30T03:38:06.371Z,100623.00
2022-08-30T03:40:33.490Z,100629.00
2022-08-30T03:43:01.023Z,100629.00
2022-08-30T03:45:28.148Z,100630.00
2022-08-30T03:47:55.398Z,100624.00
2022-08-30T03:50:22.458Z,100627.00
2022-08-30T03:52:49.403Z,100626.00
2022-08-30T03:55:16.886Z,100613.00
2022-08-30T03:57:43.972Z,100633.00
2022-08-30T04:00:13.603Z,100640.00
2022-08-30T04:02:41.695Z,100614.00
2022-08-30T04:05:10.953Z,100647.00
2022-08-30T04:07:38.208Z,100648.00
2022-08-30T04:10:08.690Z,100650.00
2022-08-30T04:12:38.480Z,100641.00
2022-08-30T04:15:06.334Z,100651.00
2022-08-30T04:17:33.274Z,100653.00
2022-08-30T04:20:01.495Z,100653.00
2022-08-30T04:22:28.391Z,100655.00
2022-08-30T04:24:55.376Z,100655.00
2022-08-30T04:27:22.322Z,100648.00
2022-08-30T04:29:49.570Z,100668.00
2022-08-30T04:32:16.920Z,100665.00
2022-08-30T04:34:44.092Z,100671.00
2022-08-30T04:37:11.006Z,100664.00
2022-08-30T04:39:38.028Z,100678.00
2022-08-30T04:42:05.081Z,100681.00
2022-08-30T04:44:32.745Z,100682.00
2022-08-30T04:46:59.877Z,100682.00
2022-08-30T04:49:26.761Z,100678.00
2022-08-30T04:51:53.640Z,100686.00
2022-08-30T04:54:20.535Z,100692.00
2022-08-30T04:56:47.381Z,100702.00
2022-08-30T04:59:14.271Z,100710.00
2022-08-30T05:01:45.490Z,100710.00
2022-08-30T05:04:14.815Z,100704.00
2022-08-30T05:06:42.659Z,100692.00
2022-08-30T05:09:09.777Z,100691.00
2022-08-30T05:11:37.819Z,100708.00
2022-08-30T05:14:05.787Z,100714.00
2022-08-30T05:16:32.759Z,100711.00
2022-08-30T05:19:00.243Z,100719.00
2022-08-30T05:21:29.416Z,100721.00
2022-08-30T05:24:02.558Z,100717.00
2022-08-30T05:26:32.373Z,100722.00
2022-08-30T05:28:59.618Z,100723.00
2022-08-30T05:31:34.295Z,100728.00
2022-08-30T05:34:02.574Z,100723.00
2022-08-30T05:36:33.618Z,100729.00
2022-08-30T05:39:00.779Z,100731.00
2022-08-30T05:41:28.468Z,100726.00
2022-08-30T05:43:59.147Z,100730.00
2022-08-30T05:46:29.576Z,100726.00
2022-08-30T05:48:57.915Z,100726.00
2022-08-30T05:51:28.791Z,100710.00
2022-08-30T05:53:58.220Z,100730.00
2022-08-30T05:56:30.982Z,100738.00
2022-08-30T05:58:58.113Z,100727.00
2022-08-30T06:01:56.075Z,100742.00
2022-08-30T06:04:23.021Z,100741.00
2022-08-30T06:06:49.869Z,100742.00
2022-08-30T06:09:16.860Z,100744.00
2022-08-30T06:11:44.995Z,100754.00
2022-08-30T06:14:13.486Z,100759.00
2022-08-30T06:16:41.458Z,100756.00
2022-08-30T06:19:11.056Z,100760.00
2022-08-30T06:21:40.587Z,100761.00
2022-08-30T06:24:10.950Z,100774.00
2022-08-30T06:26:42.450Z,100756.00
2022-08-30T06:29:13.055Z,100767.00
2022-08-30T06:31:40.824Z,100780.00
2022-08-30T06:34:07.785Z,100763.00
2022-08-30T06:36:34.961Z,100761.00
2022-08-30T06:39:03.044Z,100763.00
2022-08-30T06:41:33.626Z,100768.00
2022-08-30T06:44:03.574Z,100753.00
2022-08-30T06:46:35.791Z,100767.00
2022-08-30T06:49:05.363Z,100779.00
2022-08-30T06:51:38.224Z,100770.00
2022-08-30T06:54:09.272Z,100768.00
2022-08-30T06:56:40.343Z,100775.00
2022-08-30T06:59:10.025Z,100768.00
2022-08-30T07:01:37.164Z,100770.00
2022-08-30T07:04:04.741Z,100771.00
2022-08-30T07:06:35.734Z,100779.00
2022-08-30T07:09:03.133Z,100777.00
2022-08-30T07:11:35.751Z,100779.00
2022-08-30T07:14:04.490Z,100780.00
2022-08-30T07:16:32.477Z,100780.00
2022-08-30T07:19:01.872Z,100784.00
2022-08-30T07:21:34.161Z,100773.00
2022-08-30T07:24:02.326Z,100774.00
2022-08-30T07:26:37.264Z,100786.00
2022-08-30T07:29:05.230Z,100782.00
2022-08-30T07:31:34.497Z,100783.00
2022-08-30T07:34:04.558Z,100795.00
2022-08-30T07:36:32.057Z,100789.00
2022-08-30T07:38:59.231Z,100791.00
2022-08-30T07:41:30.997Z,100771.00
2022-08-30T07:43:58.600Z,100784.00
2022-08-30T07:46:26.444Z,100792.00
2022-08-30T07:48:56.661Z,100785.00
2022-08-30T07:51:26.922Z,100784.00
2022-08-30T07:54:01.715Z,100794.00
2022-08-30T07:56:28.673Z,100797.00
2022-08-30T07:58:55.846Z,100792.00
2022-08-30T08:01:23.925Z,100803.00
2022-08-30T08:03:51.933Z,100801.00
2022-08-30T08:06:22.305Z,100796.00
2022-08-30T08:08:49.853Z,100799.00
2022-08-30T08:11:24.274Z,100794.00
2022-08-30T08:13:53.204Z,100807.00
2022-08-30T08:16:29.150Z,100789.00
2022-08-30T08:18:56.746Z,100801.00
2022-08-30T08:21:25.668Z,100801.00
2022-08-30T08:23:53.395Z,100805.00
2022-08-30T08:26:21.198Z,100811.00
2022-08-30T08:28:48.346Z,100809.00
2022-08-30T08:31:28.784Z,100817.00
2022-08-30T08:34:02.694Z,100797.00
2022-08-30T08:36:31.364Z,100815.00
2022-08-30T08:38:59.173Z,100811.00
2022-08-30T08:41:40.249Z,100813.00
2022-08-30T08:45:03.642Z,100815.00
2022-08-30T08:47:39.988Z,100825.00
2022-08-30T08:50:44.584Z,100826.00
2022-08-30T08:53:46.168Z,100835.00
2022-08-30T08:56:17.497Z,100823.00
2022-08-30T08:58:54.621Z,100826.00
2022-08-30T09:01:30.492Z,100834.00
2022-08-30T09:04:02.772Z,100838.00
2022-08-30T09:07:00.642Z,100836.00
2022-08-30T09:09:36.637Z,100829.00
2022-08-30T09:12:08.327Z,100834.00
2022-08-30T09:14:55.445Z,100834.00
2022-08-30T09:17:23.854Z,100829.00
2022-08-30T09:19:54.095Z,100838.00
2022-08-30T09:22:35.740Z,100833.00
2022-08-30T09:25:10.941Z,100831.00
2022-08-30T09:27:43.119Z,100835.00
2022-08-30T09:30:22.174Z,100857.00
2022-08-30T09:32:58.263Z,100861.00
2022-08-30T09:35:42.917Z,100858.00
2022-08-30T09:38:26.344Z,100856.00
2022-08-30T09:40:58.697Z,100863.00
2022-08-30T09:43:33.233Z,100858.00
2022-08-30T09:46:02.891Z,100853.00
2022-08-30T09:48:35.208Z,100864.00
2022-08-30T09:51:11.137Z,100861.00
2022-08-30T09:54:16.481Z,100858.00
2022-08-30T09:57:12.729Z,100857.00
2022-08-30T10:00:15.854Z,100866.00
2022-08-30T10:03:36.116Z,100865.00
2022-08-30T10:06:23.946Z,100868.00
2022-08-30T10:09:23.167Z,100873.00
2022-08-30T10:12:05.254Z,100880.00
2022-08-30T10:15:09.261Z,100887.00
2022-08-30T10:18:04.544Z,100890.00
2022-08-30T10:22:01.399Z,100892.00
2022-08-30T10:24:39.190Z,100901.00
2022-08-30T10:27:21.737Z,100899.00
2022-08-30T10:29:59.466Z,100898.00
2022-08-30T10:33:01.016Z,100901.00
2022-08-30T10:35:44.608Z,100911.00
2022-08-30T10:38:24.155Z,100918.00
2022-08-30T10:41:21.589Z,100918.00
2022-08-30T10:44:29.985Z,100924.00
2022-08-30T10:47:32.043Z,100923.00
2022-08-30T10:50:28.542Z,100929.00
2022-08-30T10:53:04.711Z,100926.00
2022-08-30T10:55:49.361Z,100930.00
2022-08-30T10:58:18.550Z,100935.00
2022-08-30T11:00:54.012Z,100939.00
2022-08-30T11:03:46.019Z,100940.00
2022-08-30T11:06:25.187Z,100940.00
2022-08-30T11:09:22.857Z,100944.00
2022-08-30T11:12:44.497Z,100946.00
2022-08-30T11:15:21.563Z,100955.00
2022-08-30T11:18:09.784Z,100953.00
2022-08-30T11:20:50.991Z,100946.00
2022-08-30T11:23:33.189Z,100945.00
2022-08-30T11:26:20.529Z,100939.00
2022-08-30T11:28:48.317Z,100935.00
2022-08-30T11:31:18.534Z,100940.00
2022-08-30T11:33:59.168Z,100937.00
2022-08-30T11:39:53.939Z,100928.00
2022-08-30T11:42:43.396Z,100923.00
2022-08-30T11:45:28.139Z,100926.00
2022-08-30T11:47:59.893Z,100930.00
2022-08-30T11:51:09.449Z,100910.00
2022-08-30T11:54:03.927Z,100927.00
2022-08-30T11:56:54.742Z,100919.00
2022-08-30T11:59:38.422Z,100933.00
2022-08-30T12:02:08.305Z,100934.00
2022-08-30T12:04:45.437Z,100929.00
2022-08-30T12:08:01.379Z,100920.00
2022-08-30T12:10:45.659Z,100927.00
2022-08-30T12:13:34.602Z,100926.00
2022-08-30T12:16:34.850Z,100926.00
2022-08-30T12:19:21.805Z,100913.00
2022-08-30T12:22:00.073Z,100911.00
2022-08-30T12:24:40.043Z,100910.00
2022-08-30T12:27:39.533Z,100914.00
2022-08-30T12:30:10.122Z,100914.00
2022-08-30T12:32:48.784Z,100917.00
2022-08-30T12:35:28.302Z,100912.00
2022-08-30T12:38:05.989Z,100913.00
2022-08-30T12:40:34.833Z,100909.00
2022-08-30T12:43:18.413Z,100912.00
2022-08-30T12:45:50.660Z,100915.00
2022-08-30T12:48:20.018Z,100913.00
2022-08-30T12:50:53.672Z,100908.00
2022-08-30T12:53:41.788Z,100901.00
2022-08-30T12:56:15.692Z,100895.00
2022-08-30T12:58:53.530Z,100910.00
2022-08-30T13:01:31.323Z,100905.00
2022-08-30T13:04:13.418Z,100906.00
2022-08-30T13:06:51.393Z,100913.00
2022-08-30T13:09:34.595Z,100909.00
2022-08-30T13:12:21.684Z,100917.00
2022-08-30T13:14:49.950Z,100912.00
2022-08-30T13:17:19.355Z,100912.00
2022-08-30T13:20:19.459Z,100916.00
2022-08-30T13:23:22.255Z,100910.00
2022-08-30T13:25:49.332Z,100916.00
2022-08-30T13:28:17.158Z,100916.00
2022-08-30T13:30:44.251Z,100909.00
2022-08-30T13:33:11.626Z,100912.00
2022-08-30T13:35:38.623Z,100911.00
2022-08-30T13:38:07.235Z,100911.00
2022-08-30T13:40:34.303Z,100910.00
2022-08-30T13:43:01.192Z,100916.00
2022-08-30T13:45:43.643Z,100909.00
2022-08-30T13:48:11.891Z,100909.00
2022-08-30T13:50:39.126Z,100908.00
2022-08-30T13:53:06.387Z,100897.00
2022-08-30T13:55:34.050Z,100900.00
2022-08-30T13:58:01.887Z,100909.00
2022-08-30T14:00:32.401Z,100910.00
2022-08-30T14:03:03.669Z,100911.00
2022-08-30T14:06:15.563Z,100907.00
2022-08-30T14:08:48.694Z,100908.00
2022-08-30T14:11:22.428Z,100911.00
2022-08-30T14:16:42.928Z,100920.00
2022-08-30T14:19:12.563Z,100907.00
2022-08-30T14:21:39.804Z,100926.00
2022-08-30T14:24:07.601Z,100925.00
2022-08-30T14:26:48.486Z,100932.00
2022-08-30T14:29:23.058Z,100929.00
2022-08-30T14:31:51.784Z,100929.00
2022-08-30T14:34:19.286Z,100921.00
2022-08-30T14:36:47.023Z,100931.00
2022-08-30T14:39:19.121Z,100930.00
2022-08-30T14:41:52.889Z,100936.00
2022-08-30T14:44:22.725Z,100932.00
2022-08-30T14:46:51.127Z,100935.00
2022-08-30T14:49:20.201Z,100933.00
2022-08-30T14:51:48.552Z,100935.00
2022-08-30T14:54:20.585Z,100927.00
2022-08-30T14:56:47.773Z,100930.00
2022-08-30T14:59:15.039Z,100923.00
2022-08-30T15:01:43.038Z,100932.00
2022-08-30T15:04:11.089Z,100922.00
2022-08-30T15:06:40.999Z,100926.00
2022-08-30T15:09:11.292Z,100931.00
2022-08-30T15:11:39.043Z,100922.00
2022-08-30T15:14:06.989Z,100923.00
2022-08-30T15:16:36.829Z,100918.00
2022-08-30T15:19:07.559Z,100924.00
2022-08-30T15:21:44.827Z,100921.00
2022-08-30T15:24:29.696Z,100920.00
2022-08-30T15:26:58.128Z,100907.00
2022-08-30T15:29:27.609Z,100914.00
2022-08-30T15:31:58.812Z,100916.00
2022-08-30T15:34:27.936Z,100921.00
2022-08-30T15:36:56.006Z,100918.00
2022-08-30T15:39:24.828Z,100918.00
2022-08-30T15:41:56.072Z,100907.00
2022-08-30T15:44:26.257Z,100911.00
2022-08-30T15:46:53.368Z,100895.00
2022-08-30T15:49:23.605Z,100911.00
2022-08-30T15:51:54.067Z,100907.00
2022-08-30T15:54:24.068Z,100903.00
2022-08-30T15:56:59.108Z,100893.00
2022-08-30T15:59:28.738Z,100906.00
2022-08-30T16:01:57.239Z,100895.00
2022-08-30T16:04:24.764Z,100890.00
2022-08-30T16:06:52.903Z,100884.00
2022-08-30T16:09:20.036Z,100887.00
2022-08-30T16:11:47.890Z,100889.00
2022-08-30T16:14:16.263Z,100896.00
2022-08-30T16:16:43.266Z,100890.00
2022-08-30T16:19:10.418Z,100885.00
2022-08-30T16:21:39.876Z,100898.00
2022-08-30T16:24:10.497Z,100902.00
2022-08-30T16:26:41.625Z,100884.00
2022-08-30T16:29:08.973Z,100894.00
2022-08-30T16:31:36.666Z,100887.00
2022-08-30T16:34:04.765Z,100897.00
2022-08-30T16:36:35.861Z,100894.00
2022-08-30T16:39:08.312Z,100893.00
2022-08-30T16:41:37.204Z,100900.00
2022-08-30T16:44:08.767Z,100900.00
2022-08-30T16:46:40.282Z,100898.00
2022-08-30T16:49:10.487Z,100900.00
2022-08-30T16:51:38.643Z,100901.00
2022-08-30T16:54:08.153Z,100907.00
2022-08-30T16:56:36.923Z,100903.00
2022-08-30T16:59:10.850Z,100910.00
2022-08-30T17:01:42.023Z,100894.00
2022-08-30T17:04:10.737Z,100917.00
2022-08-30T17:06:38.634Z,100903.00
2022-08-30T17:09:08.327Z,100910.00
2022-08-30T17:11:37.776Z,100903.00
2022-08-30T17:14:08.311Z,100910.00
2022-08-30T17:19:26.341Z,100920.00
2022-08-30T17:21:54.271Z,100925.00
2022-08-30T17:24:21.275Z,100918.00
2022-08-30T17:26:48.891Z,100927.00
2022-08-30T17:29:15.950Z,100920.00
2022-08-30T17:31:46.360Z,100929.00
2022-08-30T17:34:21.845Z,100925.00
2022-08-30T17:36:51.172Z,100924.00
2022-08-30T17:39:18.636Z,100925.00
2022-08-30T17:41:50.366Z,100934.00
2022-08-30T17:44:20.167Z,100934.00
2022-08-30T17:46:47.430Z,100940.00
2022-08-30T17:52:03.755Z,100948.00
2022-08-30T17:54:36.977Z,100955.00
2022-08-30T17:57:11.319Z,100950.00
2022-08-30T17:59:40.088Z,100953.00
2022-08-30T18:02:07.667Z,100950.00
2022-08-30T18:04:41.849Z,100948.00
2022-08-30T18:07:12.091Z,100959.00
2022-08-30T18:09:40.722Z,100970.00
2022-08-30T18:12:08.106Z,100963.00
2022-08-30T18:14:35.543Z,100948.00
2022-08-30T18:17:06.315Z,100969.00
2022-08-30T18:19:33.376Z,100974.00
2022-08-30T18:22:03.232Z,100967.00
2022-08-30T18:24:31.569Z,100981.00
2022-08-30T18:26:58.983Z,100976.00
2022-08-30T18:29:30.283Z,100978.00
2022-08-30T18:32:02.815Z,100964.00
2022-08-30T18:34:30.957Z,100977.00
2022-08-30T18:36:58.396Z,100980.00
2022-08-30T18:39:25.627Z,100980.00
2022-08-30T18:41:55.709Z,100971.00
2022-08-30T18:44:29.040Z,100987.00
2022-08-30T18:47:00.222Z,100980.00
2022-08-30T18:49:29.293Z,100978.00
2022-08-30T18:52:00.977Z,100975.00
2022-08-30T18:54:29.010Z,100981.00
2022-08-30T18:56:55.982Z,100979.00
2022-08-30T18:59:22.924Z,100977.00
2022-08-30T19:02:02.780Z,100970.00
2022-08-30T19:04:35.464Z,100968.00
2022-08-30T19:07:19.448Z,100964.00
2022-08-30T19:09:46.919Z,100980.00
2022-08-30T19:12:14.635Z,100975.00
2022-08-30T19:14:41.669Z,100971.00
2022-08-30T19:17:09.168Z,100964.00
2022-08-30T19:19:45.155Z,100974.00
2022-08-30T19:22:16.111Z,100980.00
2022-08-30T19:24:43.414Z,100976.00
2022-08-30T19:27:10.514Z,100970.00
2022-08-30T19:29:37.485Z,100972.00
2022-08-30T19:32:04.419Z,100978.00
2022-08-30T19:34:31.393Z,100966.00
2022-08-30T19:36:58.269Z,100974.00
2022-08-30T19:39:26.914Z,100970.00
2022-08-30T19:41:53.836Z,100974.00
2022-08-30T19:44:20.887Z,100967.00
2022-08-30T19:46:47.911Z,100968.00
2022-08-30T19:49:14.920Z,100966.00
2022-08-30T19:51:46.490Z,100974.00
2022-08-30T19:54:15.123Z,100969.00
2022-08-30T19:56:42.013Z,100965.00
2022-08-30T19:59:09.225Z,100968.00
2022-08-30T20:01:37.889Z,100969.00
2022-08-30T20:04:05.027Z,100972.00
2022-08-30T20:06:32.724Z,100975.00
2022-08-30T20:09:00.777Z,100978.00
2022-08-30T20:11:28.755Z,100969.00
2022-08-30T20:13:56.326Z,100959.00
2022-08-30T20:16:33.004Z,100967.00
2022-08-30T20:19:07.930Z,100973.00
2022-08-30T20:21:35.606Z,100965.00
2022-08-30T20:24:04.071Z,100966.00
2022-08-30T20:24:25.115Z,100923.00
2022-08-30T20:24:26.470Z,100917.00
2022-08-30T20:26:34.343Z,100958.00
2022-08-30T20:29:03.332Z,100965.00
2022-08-30T20:31:30.372Z,100955.00
2022-08-30T20:33:57.760Z,100960.00
2022-08-30T20:36:24.776Z,100972.00
2022-08-30T20:38:51.827Z,100968.00
2022-08-30T20:41:19.917Z,100957.00
2022-08-30T20:43:48.875Z,100960.00
2022-08-30T20:46:20.341Z,100963.00
2022-08-30T20:48:47.971Z,100962.00
2022-08-30T20:51:19.210Z,100962.00
2022-08-30T20:53:46.796Z,100958.00
2022-08-30T20:56:22.176Z,100942.00
2022-08-30T20:58:50.556Z,100954.00
2022-08-30T21:01:18.019Z,100950.00
2022-08-30T21:03:47.660Z,100949.00
2022-08-30T21:06:16.343Z,100958.00
2022-08-30T21:08:43.998Z,100953.00
2022-08-30T21:11:11.388Z,100955.00
2022-08-30T21:13:38.816Z,100954.00
2022-08-30T21:16:07.227Z,100953.00
2022-08-30T21:18:36.903Z,100961.00
2022-08-30T21:21:21.421Z,100945.00
2022-08-30T21:23:53.702Z,100955.00
2022-08-30T21:26:21.096Z,100948.00
2022-08-30T21:28:53.992Z,100959.00
2022-08-30T21:31:24.527Z,100952.00
2022-08-30T21:33:54.092Z,100957.00
2022-08-30T21:36:42.574Z,100959.00
2022-08-30T21:39:09.886Z,100952.00
2022-08-30T21:41:38.308Z,100961.00
2022-08-30T21:44:16.413Z,100951.00
2022-08-30T21:46:43.874Z,100963.00
2022-08-30T21:49:14.228Z,100951.00
2022-08-30T21:51:45.089Z,100951.00
2022-08-30T21:54:15.214Z,100957.00
2022-08-30T21:56:46.204Z,100957.00
2022-08-30T21:59:16.453Z,100955.00
2022-08-30T22:01:43.626Z,100957.00
2022-08-30T22:04:12.737Z,100949.00
2022-08-30T22:06:45.328Z,100954.00
2022-08-30T22:09:14.454Z,100947.00
2022-08-30T22:11:44.245Z,100951.00
2022-08-30T22:14:13.448Z,100950.00
2022-08-30T22:16:41.792Z,100957.00
2022-08-30T22:19:09.252Z,100951.00
2022-08-30T22:21:39.334Z,100953.00
2022-08-30T22:24:06.521Z,100955.00
2022-08-30T22:26:35.470Z,100957.00
2022-08-30T22:29:04.680Z,100955.00
2022-08-30T22:31:32.107Z,100953.00
2022-08-30T22:33:59.257Z,100957.00
2022-08-30T22:36:32.278Z,100954.00
2022-08-30T22:39:02.314Z,100947.00
2022-08-30T22:41:35.960Z,100945.00
2022-08-30T22:44:04.216Z,100951.00
2022-08-30T22:46:34.501Z,100946.00
2022-08-30T22:49:07.995Z,100951.00
2022-08-30T22:51:36.262Z,100950.00
2022-08-30T22:54:05.938Z,100956.00
2022-08-30T22:56:35.685Z,100954.00
2022-08-30T22:59:03.748Z,100952.00
2022-08-30T23:01:37.151Z,100956.00
2022-08-30T23:04:07.242Z,100958.00
2022-08-30T23:06:35.346Z,100951.00
2022-08-30T23:09:03.002Z,100953.00
2022-08-30T23:11:30.599Z,100955.00
2022-08-30T23:14:01.238Z,100958.00
2022-08-30T23:16:28.243Z,100946.00
2022-08-30T23:18:55.245Z,100964.00
2022-08-30T23:21:27.640Z,100959.00
2022-08-30T23:24:15.807Z,100962.00
2022-08-30T23:27:05.672Z,100959.00
2022-08-30T23:29:52.316Z,100956.00
2022-08-30T23:32:38.794Z,100962.00
2022-08-30T23:49:03.725Z,100959.00
2022-08-30T23:51:48.914Z,100947.00
2022-08-30T23:54:35.040Z,100953.00
2022-08-30T23:57:20.261Z,100940.00
